sensor_id;sensor_type;location;lat;lon;timestamp;P1;durP1;ratioP1;P2;durP2;ratioP2
14688;SDS011;7432;48.728;9.154;2023-07-28T00:00:42;5.30;;;4.80;;
14688;SDS011;7432;48.728;9.154;2023-07-28T00:03:09;5.30;;;4.90;;
14688;SDS011;7432;48.728;9.154;2023-07-28T00:05:35;5.80;;;5.30;;
14688;SDS011;7432;48.728;9.154;2023-07-28T00:08:02;6.13;;;5.53;;
14688;SDS011;7432;48.728;9.154;2023-07-28T00:10:29;6.13;;;5.63;;
14688;SDS011;7432;48.728;9.154;2023-07-28T00:12:56;7.87;;;6.07;;
14688;SDS011;7432;48.728;9.154;2023-07-28T00:15:23;7.13;;;6.07;;
14688;SDS011;7432;48.728;9.154;2023-07-28T00:17:50;8.07;;;5.90;;
14688;SDS011;7432;48.728;9.154;2023-07-28T00:20:17;7.23;;;5.70;;
14688;SDS011;7432;48.728;9.154;2023-07-28T00:22:44;7.77;;;6.10;;
14688;SDS011;7432;48.728;9.154;2023-07-28T00:25:10;7.10;;;5.10;;
14688;SDS011;7432;48.728;9.154;2023-07-28T00:27:36;7.87;;;5.63;;
14688;SDS011;7432;48.728;9.154;2023-07-28T00:30:03;9.50;;;5.80;;
14688;SDS011;7432;48.728;9.154;2023-07-28T00:32:31;6.57;;;5.70;;
14688;SDS011;7432;48.728;9.154;2023-07-28T00:34:57;6.27;;;5.60;;
14688;SDS011;7432;48.728;9.154;2023-07-28T00:37:24;7.00;;;5.50;;
14688;SDS011;7432;48.728;9.154;2023-07-28T00:39:50;5.60;;;5.00;;
14688;SDS011;7432;48.728;9.154;2023-07-28T00:42:16;6.50;;;4.90;;
14688;SDS011;7432;48.728;9.154;2023-07-28T00:44:43;5.43;;;4.93;;
14688;SDS011;7432;48.728;9.154;2023-07-28T00:47:09;6.17;;;4.50;;
14688;SDS011;7432;48.728;9.154;2023-07-28T00:49:37;5.40;;;4.70;;
14688;SDS011;7432;48.728;9.154;2023-07-28T00:52:04;5.20;;;4.80;;
14688;SDS011;7432;48.728;9.154;2023-07-28T00:54:32;5.20;;;4.80;;
14688;SDS011;7432;48.728;9.154;2023-07-28T00:56:59;5.30;;;4.80;;
14688;SDS011;7432;48.728;9.154;2023-07-28T00:59:25;5.00;;;4.60;;
14688;SDS011;7432;48.728;9.154;2023-07-28T01:01:52;5.10;;;4.60;;
14688;SDS011;7432;48.728;9.154;2023-07-28T01:04:19;5.30;;;4.80;;
14688;SDS011;7432;48.728;9.154;2023-07-28T01:06:47;5.07;;;4.57;;
14688;SDS011;7432;48.728;9.154;2023-07-28T01:09:24;5.50;;;5.00;;
14688;SDS011;7432;48.728;9.154;2023-07-28T01:11:55;5.27;;;4.87;;
14688;SDS011;7432;48.728;9.154;2023-07-28T01:14:22;5.20;;;4.80;;
14688;SDS011;7432;48.728;9.154;2023-07-28T01:16:49;5.23;;;4.90;;
14688;SDS011;7432;48.728;9.154;2023-07-28T01:19:16;4.73;;;4.43;;
14688;SDS011;7432;48.728;9.154;2023-07-28T01:21:44;5.00;;;4.60;;
14688;SDS011;7432;48.728;9.154;2023-07-28T01:24:16;5.07;;;4.57;;
14688;SDS011;7432;48.728;9.154;2023-07-28T01:26:49;5.10;;;4.60;;
14688;SDS011;7432;48.728;9.154;2023-07-28T01:29:16;4.93;;;4.60;;
14688;SDS011;7432;48.728;9.154;2023-07-28T01:31:45;5.20;;;4.80;;
14688;SDS011;7432;48.728;9.154;2023-07-28T01:34:12;5.07;;;4.67;;
14688;SDS011;7432;48.728;9.154;2023-07-28T01:36:38;5.40;;;4.87;;
14688;SDS011;7432;48.728;9.154;2023-07-28T01:39:04;5.00;;;4.43;;
14688;SDS011;7432;48.728;9.154;2023-07-28T01:41:31;5.20;;;4.80;;
14688;SDS011;7432;48.728;9.154;2023-07-28T01:43:59;5.20;;;4.80;;
14688;SDS011;7432;48.728;9.154;2023-07-28T01:46:25;4.60;;;4.30;;
14688;SDS011;7432;48.728;9.154;2023-07-28T01:48:51;5.43;;;5.03;;
14688;SDS011;7432;48.728;9.154;2023-07-28T01:51:18;5.60;;;5.10;;
14688;SDS011;7432;48.728;9.154;2023-07-28T01:53:44;5.40;;;5.00;;
14688;SDS011;7432;48.728;9.154;2023-07-28T01:56:10;4.97;;;4.57;;
14688;SDS011;7432;48.728;9.154;2023-07-28T01:58:37;4.80;;;4.50;;
14688;SDS011;7432;48.728;9.154;2023-07-28T02:01:04;4.90;;;4.50;;
14688;SDS011;7432;48.728;9.154;2023-07-28T02:03:31;5.20;;;4.70;;
14688;SDS011;7432;48.728;9.154;2023-07-28T02:05:57;4.60;;;4.23;;
14688;SDS011;7432;48.728;9.154;2023-07-28T02:08:24;5.87;;;4.70;;
14688;SDS011;7432;48.728;9.154;2023-07-28T02:10:50;4.70;;;4.30;;
14688;SDS011;7432;48.728;9.154;2023-07-28T02:13:19;5.33;;;4.83;;
14688;SDS011;7432;48.728;9.154;2023-07-28T02:15:45;5.17;;;4.70;;
14688;SDS011;7432;48.728;9.154;2023-07-28T02:18:13;5.07;;;4.67;;
14688;SDS011;7432;48.728;9.154;2023-07-28T02:20:39;5.10;;;4.70;;
14688;SDS011;7432;48.728;9.154;2023-07-28T02:23:05;6.30;;;4.50;;
14688;SDS011;7432;48.728;9.154;2023-07-28T02:25:32;4.93;;;4.30;;
14688;SDS011;7432;48.728;9.154;2023-07-28T02:27:58;4.53;;;4.23;;
14688;SDS011;7432;48.728;9.154;2023-07-28T02:30:24;4.90;;;4.50;;
14688;SDS011;7432;48.728;9.154;2023-07-28T02:32:51;4.90;;;4.50;;
14688;SDS011;7432;48.728;9.154;2023-07-28T02:35:18;4.90;;;4.50;;
14688;SDS011;7432;48.728;9.154;2023-07-28T02:37:45;4.73;;;4.20;;
14688;SDS011;7432;48.728;9.154;2023-07-28T02:40:11;4.57;;;4.17;;
14688;SDS011;7432;48.728;9.154;2023-07-28T02:42:38;4.90;;;4.50;;
14688;SDS011;7432;48.728;9.154;2023-07-28T02:45:04;4.10;;;3.77;;
14688;SDS011;7432;48.728;9.154;2023-07-28T02:47:31;5.73;;;4.70;;
14688;SDS011;7432;48.728;9.154;2023-07-28T02:49:58;4.93;;;4.53;;
14688;SDS011;7432;48.728;9.154;2023-07-28T02:52:25;4.27;;;3.97;;
14688;SDS011;7432;48.728;9.154;2023-07-28T02:54:52;5.23;;;4.83;;
14688;SDS011;7432;48.728;9.154;2023-07-28T02:57:18;5.40;;;5.00;;
14688;SDS011;7432;48.728;9.154;2023-07-28T02:59:45;5.43;;;4.93;;
14688;SDS011;7432;48.728;9.154;2023-07-28T03:02:11;4.63;;;4.33;;
14688;SDS011;7432;48.728;9.154;2023-07-28T03:04:38;5.10;;;4.70;;
14688;SDS011;7432;48.728;9.154;2023-07-28T03:07:04;4.80;;;4.37;;
14688;SDS011;7432;48.728;9.154;2023-07-28T03:09:32;4.40;;;4.10;;
14688;SDS011;7432;48.728;9.154;2023-07-28T03:11:59;4.50;;;4.20;;
14688;SDS011;7432;48.728;9.154;2023-07-28T03:14:25;4.60;;;4.30;;
14688;SDS011;7432;48.728;9.154;2023-07-28T03:16:53;4.07;;;3.67;;
14688;SDS011;7432;48.728;9.154;2023-07-28T03:19:19;4.70;;;4.30;;
14688;SDS011;7432;48.728;9.154;2023-07-28T03:21:46;4.80;;;4.10;;
14688;SDS011;7432;48.728;9.154;2023-07-28T03:24:12;3.80;;;3.50;;
14688;SDS011;7432;48.728;9.154;2023-07-28T03:26:40;4.63;;;4.23;;
14688;SDS011;7432;48.728;9.154;2023-07-28T03:29:06;4.40;;;4.10;;
14688;SDS011;7432;48.728;9.154;2023-07-28T03:31:33;4.60;;;4.30;;
14688;SDS011;7432;48.728;9.154;2023-07-28T03:34:00;4.63;;;4.23;;
14688;SDS011;7432;48.728;9.154;2023-07-28T03:36:27;4.27;;;3.97;;
14688;SDS011;7432;48.728;9.154;2023-07-28T03:38:53;4.90;;;4.57;;
14688;SDS011;7432;48.728;9.154;2023-07-28T03:41:20;4.60;;;4.30;;
14688;SDS011;7432;48.728;9.154;2023-07-28T03:43:47;5.03;;;4.63;;
14688;SDS011;7432;48.728;9.154;2023-07-28T03:46:14;4.77;;;4.47;;
14688;SDS011;7432;48.728;9.154;2023-07-28T03:48:40;4.80;;;4.40;;
14688;SDS011;7432;48.728;9.154;2023-07-28T03:51:07;4.40;;;4.10;;
14688;SDS011;7432;48.728;9.154;2023-07-28T03:53:33;4.17;;;3.87;;
14688;SDS011;7432;48.728;9.154;2023-07-28T03:56:00;4.47;;;4.17;;
14688;SDS011;7432;48.728;9.154;2023-07-28T03:58:27;4.90;;;4.50;;
14688;SDS011;7432;48.728;9.154;2023-07-28T04:00:54;5.17;;;4.70;;
14688;SDS011;7432;48.728;9.154;2023-07-28T04:03:21;4.50;;;4.20;;
14688;SDS011;7432;48.728;9.154;2023-07-28T04:05:47;5.30;;;4.63;;
14688;SDS011;7432;48.728;9.154;2023-07-28T04:08:14;5.00;;;4.60;;
14688;SDS011;7432;48.728;9.154;2023-07-28T04:10:40;5.50;;;5.10;;
14688;SDS011;7432;48.728;9.154;2023-07-28T04:13:07;7.17;;;5.07;;
14688;SDS011;7432;48.728;9.154;2023-07-28T04:15:34;5.00;;;4.60;;
14688;SDS011;7432;48.728;9.154;2023-07-28T04:18:02;5.57;;;4.70;;
14688;SDS011;7432;48.728;9.154;2023-07-28T04:20:28;4.83;;;4.53;;
14688;SDS011;7432;48.728;9.154;2023-07-28T04:22:54;5.40;;;5.00;;
14688;SDS011;7432;48.728;9.154;2023-07-28T04:25:21;4.67;;;4.37;;
14688;SDS011;7432;48.728;9.154;2023-07-28T04:27:47;5.40;;;5.07;;
14688;SDS011;7432;48.728;9.154;2023-07-28T04:30:13;4.77;;;4.47;;
14688;SDS011;7432;48.728;9.154;2023-07-28T04:32:40;5.47;;;5.17;;
14688;SDS011;7432;48.728;9.154;2023-07-28T04:35:08;5.40;;;5.00;;
14688;SDS011;7432;48.728;9.154;2023-07-28T04:37:34;5.53;;;4.30;;
14688;SDS011;7432;48.728;9.154;2023-07-28T04:40:01;5.30;;;4.90;;
14688;SDS011;7432;48.728;9.154;2023-07-28T04:42:27;5.60;;;5.20;;
14688;SDS011;7432;48.728;9.154;2023-07-28T04:44:53;5.67;;;5.27;;
14688;SDS011;7432;48.728;9.154;2023-07-28T04:47:20;4.90;;;4.50;;
14688;SDS011;7432;48.728;9.154;2023-07-28T04:49:46;5.87;;;5.47;;
14688;SDS011;7432;48.728;9.154;2023-07-28T04:52:14;5.57;;;5.17;;
14688;SDS011;7432;48.728;9.154;2023-07-28T04:54:40;6.97;;;5.50;;
14688;SDS011;7432;48.728;9.154;2023-07-28T04:57:07;5.63;;;5.23;;
14688;SDS011;7432;48.728;9.154;2023-07-28T04:59:33;5.03;;;4.53;;
14688;SDS011;7432;48.728;9.154;2023-07-28T05:01:59;5.80;;;5.40;;
14688;SDS011;7432;48.728;9.154;2023-07-28T05:04:26;6.00;;;5.40;;
14688;SDS011;7432;48.728;9.154;2023-07-28T05:06:52;5.80;;;5.40;;
14688;SDS011;7432;48.728;9.154;2023-07-28T05:09:20;5.20;;;4.80;;
14688;SDS011;7432;48.728;9.154;2023-07-28T05:11:46;5.07;;;4.67;;
14688;SDS011;7432;48.728;9.154;2023-07-28T05:14:13;5.57;;;5.13;;
14688;SDS011;7432;48.728;9.154;2023-07-28T05:16:39;5.60;;;5.10;;
14688;SDS011;7432;48.728;9.154;2023-07-28T05:19:05;5.70;;;5.30;;
14688;SDS011;7432;48.728;9.154;2023-07-28T05:21:32;5.93;;;5.50;;
14688;SDS011;7432;48.728;9.154;2023-07-28T05:23:59;6.43;;;5.10;;
14688;SDS011;7432;48.728;9.154;2023-07-28T05:26:26;5.57;;;5.10;;
14688;SDS011;7432;48.728;9.154;2023-07-28T05:28:53;5.53;;;5.13;;
14688;SDS011;7432;48.728;9.154;2023-07-28T05:31:19;5.27;;;4.77;;
14688;SDS011;7432;48.728;9.154;2023-07-28T05:33:46;5.27;;;4.87;;
14688;SDS011;7432;48.728;9.154;2023-07-28T05:36:12;5.90;;;5.50;;
14688;SDS011;7432;48.728;9.154;2023-07-28T05:38:38;8.63;;;5.60;;
14688;SDS011;7432;48.728;9.154;2023-07-28T05:41:05;5.80;;;5.30;;
14688;SDS011;7432;48.728;9.154;2023-07-28T05:43:33;5.60;;;5.10;;
14688;SDS011;7432;48.728;9.154;2023-07-28T05:46:00;5.20;;;4.80;;
14688;SDS011;7432;48.728;9.154;2023-07-28T05:48:27;5.23;;;4.83;;
14688;SDS011;7432;48.728;9.154;2023-07-28T05:50:53;5.67;;;5.27;;
14688;SDS011;7432;48.728;9.154;2023-07-28T05:53:20;4.93;;;4.63;;
14688;SDS011;7432;48.728;9.154;2023-07-28T05:55:46;5.97;;;5.47;;
14688;SDS011;7432;48.728;9.154;2023-07-28T05:58:13;5.50;;;5.10;;
14688;SDS011;7432;48.728;9.154;2023-07-28T06:00:41;5.90;;;5.40;;
14688;SDS011;7432;48.728;9.154;2023-07-28T06:03:09;6.00;;;5.50;;
14688;SDS011;7432;48.728;9.154;2023-07-28T06:05:37;5.30;;;4.90;;
14688;SDS011;7432;48.728;9.154;2023-07-28T06:08:04;4.93;;;4.53;;
14688;SDS011;7432;48.728;9.154;2023-07-28T06:10:30;5.73;;;5.33;;
14688;SDS011;7432;48.728;9.154;2023-07-28T06:12:57;5.73;;;5.23;;
14688;SDS011;7432;48.728;9.154;2023-07-28T06:15:24;5.83;;;5.33;;
14688;SDS011;7432;48.728;9.154;2023-07-28T06:17:51;5.03;;;4.73;;
14688;SDS011;7432;48.728;9.154;2023-07-28T06:20:18;6.10;;;5.53;;
14688;SDS011;7432;48.728;9.154;2023-07-28T06:22:44;6.93;;;6.17;;
14688;SDS011;7432;48.728;9.154;2023-07-28T06:25:11;6.40;;;5.90;;
14688;SDS011;7432;48.728;9.154;2023-07-28T06:27:37;6.40;;;5.90;;
14688;SDS011;7432;48.728;9.154;2023-07-28T06:30:05;5.63;;;5.23;;
14688;SDS011;7432;48.728;9.154;2023-07-28T06:32:32;6.47;;;5.37;;
14688;SDS011;7432;48.728;9.154;2023-07-28T06:34:59;5.83;;;5.40;;
14688;SDS011;7432;48.728;9.154;2023-07-28T06:37:26;6.20;;;5.70;;
14688;SDS011;7432;48.728;9.154;2023-07-28T06:39:52;6.00;;;5.60;;
14688;SDS011;7432;48.728;9.154;2023-07-28T06:42:20;6.10;;;5.53;;
14688;SDS011;7432;48.728;9.154;2023-07-28T06:44:48;5.67;;;5.27;;
14688;SDS011;7432;48.728;9.154;2023-07-28T06:47:15;6.00;;;5.57;;
14688;SDS011;7432;48.728;9.154;2023-07-28T06:49:41;6.43;;;5.83;;
14688;SDS011;7432;48.728;9.154;2023-07-28T06:52:09;6.30;;;5.80;;
14688;SDS011;7432;48.728;9.154;2023-07-28T06:54:36;6.27;;;5.67;;
14688;SDS011;7432;48.728;9.154;2023-07-28T06:57:02;6.30;;;5.70;;
14688;SDS011;7432;48.728;9.154;2023-07-28T06:59:31;6.63;;;5.90;;
14688;SDS011;7432;48.728;9.154;2023-07-28T07:01:58;5.80;;;5.30;;
14688;SDS011;7432;48.728;9.154;2023-07-28T07:04:24;8.60;;;5.97;;
14688;SDS011;7432;48.728;9.154;2023-07-28T07:06:50;6.87;;;6.17;;
14688;SDS011;7432;48.728;9.154;2023-07-28T07:09:18;6.43;;;5.83;;
14688;SDS011;7432;48.728;9.154;2023-07-28T07:11:45;7.67;;;5.90;;
14688;SDS011;7432;48.728;9.154;2023-07-28T07:14:11;7.00;;;6.33;;
14688;SDS011;7432;48.728;9.154;2023-07-28T07:16:39;6.03;;;5.50;;
14688;SDS011;7432;48.728;9.154;2023-07-28T07:19:05;6.30;;;5.80;;
14688;SDS011;7432;48.728;9.154;2023-07-28T07:21:32;6.47;;;5.87;;
14688;SDS011;7432;48.728;9.154;2023-07-28T07:23:58;5.87;;;5.43;;
14688;SDS011;7432;48.728;9.154;2023-07-28T07:26:26;6.40;;;5.90;;
14688;SDS011;7432;48.728;9.154;2023-07-28T07:28:52;6.70;;;5.93;;
14688;SDS011;7432;48.728;9.154;2023-07-28T07:31:19;8.37;;;5.90;;
14688;SDS011;7432;48.728;9.154;2023-07-28T07:33:45;7.07;;;6.47;;
14688;SDS011;7432;48.728;9.154;2023-07-28T07:36:12;6.22;;;5.65;;
14688;SDS011;7432;48.728;9.154;2023-07-28T07:38:39;6.27;;;5.67;;
14688;SDS011;7432;48.728;9.154;2023-07-28T07:41:06;6.23;;;5.83;;
14688;SDS011;7432;48.728;9.154;2023-07-28T07:43:35;6.33;;;5.93;;
14688;SDS011;7432;48.728;9.154;2023-07-28T07:46:01;5.80;;;5.50;;
14688;SDS011;7432;48.728;9.154;2023-07-28T07:48:28;6.68;;;6.18;;
14688;SDS011;7432;48.728;9.154;2023-07-28T07:50:55;6.53;;;5.83;;
14688;SDS011;7432;48.728;9.154;2023-07-28T07:53:21;6.60;;;6.10;;
14688;SDS011;7432;48.728;9.154;2023-07-28T07:55:48;7.68;;;6.63;;
14688;SDS011;7432;48.728;9.154;2023-07-28T07:58:15;6.18;;;5.75;;
14688;SDS011;7432;48.728;9.154;2023-07-28T08:00:43;6.77;;;6.27;;
14688;SDS011;7432;48.728;9.154;2023-07-28T08:03:09;6.65;;;6.05;;
14688;SDS011;7432;48.728;9.154;2023-07-28T08:05:36;6.85;;;6.32;;
14688;SDS011;7432;48.728;9.154;2023-07-28T08:08:02;7.40;;;6.70;;
14688;SDS011;7432;48.728;9.154;2023-07-28T08:10:30;6.90;;;6.30;;
14688;SDS011;7432;48.728;9.154;2023-07-28T08:12:57;7.20;;;6.70;;
14688;SDS011;7432;48.728;9.154;2023-07-28T08:15:24;6.60;;;6.10;;
14688;SDS011;7432;48.728;9.154;2023-07-28T08:17:52;6.65;;;6.15;;
14688;SDS011;7432;48.728;9.154;2023-07-28T08:20:18;7.10;;;6.60;;
14688;SDS011;7432;48.728;9.154;2023-07-28T08:22:45;7.30;;;6.80;;
14688;SDS011;7432;48.728;9.154;2023-07-28T08:25:11;7.30;;;6.65;;
14688;SDS011;7432;48.728;9.154;2023-07-28T08:27:38;7.20;;;6.70;;
14688;SDS011;7432;48.728;9.154;2023-07-28T08:30:05;7.50;;;7.00;;
14688;SDS011;7432;48.728;9.154;2023-07-28T08:32:32;7.32;;;6.82;;
14688;SDS011;7432;48.728;9.154;2023-07-28T08:35:00;7.22;;;6.72;;
14688;SDS011;7432;48.728;9.154;2023-07-28T08:37:27;7.30;;;6.78;;
14688;SDS011;7432;48.728;9.154;2023-07-28T08:39:54;7.70;;;7.15;;
14688;SDS011;7432;48.728;9.154;2023-07-28T08:42:20;7.82;;;7.32;;
14688;SDS011;7432;48.728;9.154;2023-07-28T08:44:47;7.82;;;7.32;;
14688;SDS011;7432;48.728;9.154;2023-07-28T08:47:17;7.70;;;7.10;;
14688;SDS011;7432;48.728;9.154;2023-07-28T08:49:43;8.00;;;7.55;;
14688;SDS011;7432;48.728;9.154;2023-07-28T08:52:12;8.70;;;8.02;;
14688;SDS011;7432;48.728;9.154;2023-07-28T08:54:41;8.80;;;8.20;;
14688;SDS011;7432;48.728;9.154;2023-07-28T08:57:08;8.70;;;8.07;;
14688;SDS011;7432;48.728;9.154;2023-07-28T08:59:35;7.82;;;7.32;;
14688;SDS011;7432;48.728;9.154;2023-07-28T09:02:06;8.35;;;7.88;;
14688;SDS011;7432;48.728;9.154;2023-07-28T09:04:35;8.43;;;7.93;;
14688;SDS011;7432;48.728;9.154;2023-07-28T09:07:03;8.93;;;8.43;;
14688;SDS011;7432;48.728;9.154;2023-07-28T09:09:32;8.98;;;8.38;;
14688;SDS011;7432;48.728;9.154;2023-07-28T09:11:59;10.10;;;9.50;;
14688;SDS011;7432;48.728;9.154;2023-07-28T09:14:26;9.10;;;8.60;;
14688;SDS011;7432;48.728;9.154;2023-07-28T09:16:52;8.88;;;8.38;;
14688;SDS011;7432;48.728;9.154;2023-07-28T09:19:19;9.00;;;8.50;;
14688;SDS011;7432;48.728;9.154;2023-07-28T09:21:56;9.13;;;8.52;;
14688;SDS011;7432;48.728;9.154;2023-07-28T09:24:28;8.75;;;8.25;;
14688;SDS011;7432;48.728;9.154;2023-07-28T09:26:59;9.40;;;8.77;;
14688;SDS011;7432;48.728;9.154;2023-07-28T09:29:26;8.30;;;7.80;;
14688;SDS011;7432;48.728;9.154;2023-07-28T09:31:53;8.57;;;8.00;;
14688;SDS011;7432;48.728;9.154;2023-07-28T09:34:29;9.10;;;8.43;;
14688;SDS011;7432;48.728;9.154;2023-07-28T09:36:57;9.00;;;8.40;;
14688;SDS011;7432;48.728;9.154;2023-07-28T09:39:24;9.48;;;8.63;;
14688;SDS011;7432;48.728;9.154;2023-07-28T09:41:51;8.63;;;8.13;;
14688;SDS011;7432;48.728;9.154;2023-07-28T09:44:23;8.95;;;8.30;;
14688;SDS011;7432;48.728;9.154;2023-07-28T09:46:51;9.60;;;8.90;;
14688;SDS011;7432;48.728;9.154;2023-07-28T09:49:20;9.60;;;8.90;;
14688;SDS011;7432;48.728;9.154;2023-07-28T09:51:48;10.02;;;9.13;;
14688;SDS011;7432;48.728;9.154;2023-07-28T09:54:20;10.20;;;9.30;;
14688;SDS011;7432;48.728;9.154;2023-07-28T09:56:52;9.68;;;8.98;;
14688;SDS011;7432;48.728;9.154;2023-07-28T09:59:21;9.50;;;8.90;;
14688;SDS011;7432;48.728;9.154;2023-07-28T10:01:54;9.25;;;8.55;;
14688;SDS011;7432;48.728;9.154;2023-07-28T10:04:22;9.43;;;8.93;;
14688;SDS011;7432;48.728;9.154;2023-07-28T10:06:48;10.25;;;9.27;;
14688;SDS011;7432;48.728;9.154;2023-07-28T10:09:16;9.70;;;9.00;;
14688;SDS011;7432;48.728;9.154;2023-07-28T10:11:43;10.35;;;9.65;;
14688;SDS011;7432;48.728;9.154;2023-07-28T10:14:09;9.45;;;8.85;;
14688;SDS011;7432;48.728;9.154;2023-07-28T10:16:40;9.77;;;9.18;;
14688;SDS011;7432;48.728;9.154;2023-07-28T10:19:07;9.95;;;9.25;;
14688;SDS011;7432;48.728;9.154;2023-07-28T10:21:39;9.20;;;8.70;;
14688;SDS011;7432;48.728;9.154;2023-07-28T10:24:06;9.45;;;8.80;;
14688;SDS011;7432;48.728;9.154;2023-07-28T10:26:36;8.85;;;8.43;;
14688;SDS011;7432;48.728;9.154;2023-07-28T10:29:09;9.10;;;8.50;;
14688;SDS011;7432;48.728;9.154;2023-07-28T10:31:37;8.45;;;7.85;;
14688;SDS011;7432;48.728;9.154;2023-07-28T10:34:17;8.13;;;7.63;;
14688;SDS011;7432;48.728;9.154;2023-07-28T10:36:43;8.88;;;8.32;;
14688;SDS011;7432;48.728;9.154;2023-07-28T10:39:13;8.93;;;8.23;;
14688;SDS011;7432;48.728;9.154;2023-07-28T10:41:54;7.80;;;7.40;;
14688;SDS011;7432;48.728;9.154;2023-07-28T10:44:27;7.90;;;7.50;;
14688;SDS011;7432;48.728;9.154;2023-07-28T10:46:55;7.80;;;7.40;;
14688;SDS011;7432;48.728;9.154;2023-07-28T10:49:22;8.10;;;7.68;;
14688;SDS011;7432;48.728;9.154;2023-07-28T10:51:50;7.05;;;6.72;;
14688;SDS011;7432;48.728;9.154;2023-07-28T10:54:16;8.05;;;7.63;;
14688;SDS011;7432;48.728;9.154;2023-07-28T10:56:45;7.75;;;7.35;;
14688;SDS011;7432;48.728;9.154;2023-07-28T10:59:11;8.60;;;8.10;;
14688;SDS011;7432;48.728;9.154;2023-07-28T11:01:39;8.23;;;7.82;;
14688;SDS011;7432;48.728;9.154;2023-07-28T11:04:11;9.23;;;8.73;;
14688;SDS011;7432;48.728;9.154;2023-07-28T11:06:42;8.88;;;8.38;;
14688;SDS011;7432;48.728;9.154;2023-07-28T11:09:09;9.18;;;8.57;;
14688;SDS011;7432;48.728;9.154;2023-07-28T11:11:37;8.80;;;8.30;;
14688;SDS011;7432;48.728;9.154;2023-07-28T11:14:04;8.48;;;7.97;;
14688;SDS011;7432;48.728;9.154;2023-07-28T11:16:33;9.20;;;8.70;;
14688;SDS011;7432;48.728;9.154;2023-07-28T11:19:00;9.02;;;8.52;;
14688;SDS011;7432;48.728;9.154;2023-07-28T11:21:29;8.77;;;8.27;;
14688;SDS011;7432;48.728;9.154;2023-07-28T11:23:55;9.13;;;8.60;;
14688;SDS011;7432;48.728;9.154;2023-07-28T11:26:22;8.68;;;8.27;;
14688;SDS011;7432;48.728;9.154;2023-07-28T11:28:49;9.10;;;8.55;;
14688;SDS011;7432;48.728;9.154;2023-07-28T11:31:22;8.27;;;7.78;;
14688;SDS011;7432;48.728;9.154;2023-07-28T11:33:50;9.07;;;8.57;;
14688;SDS011;7432;48.728;9.154;2023-07-28T11:36:21;9.25;;;8.75;;
14688;SDS011;7432;48.728;9.154;2023-07-28T11:38:49;9.77;;;9.20;;
14688;SDS011;7432;48.728;9.154;2023-07-28T11:41:16;9.13;;;8.52;;
14688;SDS011;7432;48.728;9.154;2023-07-28T11:43:44;9.45;;;8.95;;
14688;SDS011;7432;48.728;9.154;2023-07-28T11:49:06;8.95;;;8.43;;
14688;SDS011;7432;48.728;9.154;2023-07-28T11:51:36;9.95;;;9.23;;
14688;SDS011;7432;48.728;9.154;2023-07-28T11:54:05;10.57;;;9.57;;
14688;SDS011;7432;48.728;9.154;2023-07-28T11:56:32;9.98;;;9.38;;
14688;SDS011;7432;48.728;9.154;2023-07-28T11:58:59;9.23;;;8.32;;
14688;SDS011;7432;48.728;9.154;2023-07-28T12:01:25;8.93;;;8.23;;
14688;SDS011;7432;48.728;9.154;2023-07-28T12:03:52;9.05;;;8.48;;
14688;SDS011;7432;48.728;9.154;2023-07-28T12:06:19;8.68;;;8.18;;
14688;SDS011;7432;48.728;9.154;2023-07-28T12:08:45;9.02;;;8.52;;
14688;SDS011;7432;48.728;9.154;2023-07-28T12:11:13;8.70;;;8.20;;
14688;SDS011;7432;48.728;9.154;2023-07-28T12:13:48;8.80;;;8.30;;
14688;SDS011;7432;48.728;9.154;2023-07-28T12:18:57;8.77;;;8.18;;
14688;SDS011;7432;48.728;9.154;2023-07-28T12:21:24;9.10;;;8.43;;
14688;SDS011;7432;48.728;9.154;2023-07-28T12:23:50;8.50;;;7.90;;
14688;SDS011;7432;48.728;9.154;2023-07-28T12:26:18;8.85;;;8.27;;
14688;SDS011;7432;48.728;9.154;2023-07-28T12:28:44;9.52;;;8.93;;
14688;SDS011;7432;48.728;9.154;2023-07-28T12:31:11;9.23;;;8.68;;
14688;SDS011;7432;48.728;9.154;2023-07-28T12:33:37;8.82;;;8.23;;
14688;SDS011;7432;48.728;9.154;2023-07-28T12:36:04;9.65;;;8.95;;
14688;SDS011;7432;48.728;9.154;2023-07-28T12:38:31;9.90;;;9.30;;
14688;SDS011;7432;48.728;9.154;2023-07-28T12:40:57;9.65;;;8.98;;
14688;SDS011;7432;48.728;9.154;2023-07-28T12:43:25;9.25;;;8.68;;
14688;SDS011;7432;48.728;9.154;2023-07-28T12:45:54;9.93;;;9.13;;
14688;SDS011;7432;48.728;9.154;2023-07-28T12:48:20;9.35;;;8.57;;
14688;SDS011;7432;48.728;9.154;2023-07-28T12:50:46;9.32;;;8.73;;
14688;SDS011;7432;48.728;9.154;2023-07-28T12:53:13;9.32;;;8.73;;
14688;SDS011;7432;48.728;9.154;2023-07-28T12:55:39;9.85;;;9.25;;
14688;SDS011;7432;48.728;9.154;2023-07-28T12:58:05;10.00;;;9.38;;
14688;SDS011;7432;48.728;9.154;2023-07-28T13:00:33;8.43;;;7.93;;
14688;SDS011;7432;48.728;9.154;2023-07-28T13:02:59;9.57;;;8.88;;
14688;SDS011;7432;48.728;9.154;2023-07-28T13:05:26;9.10;;;8.60;;
14688;SDS011;7432;48.728;9.154;2023-07-28T13:07:52;7.97;;;7.47;;
14688;SDS011;7432;48.728;9.154;2023-07-28T13:10:19;8.75;;;8.18;;
14688;SDS011;7432;48.728;9.154;2023-07-28T13:12:45;9.30;;;8.80;;
14688;SDS011;7432;48.728;9.154;2023-07-28T13:15:11;9.07;;;8.48;;
14688;SDS011;7432;48.728;9.154;2023-07-28T13:17:40;9.00;;;8.50;;
14688;SDS011;7432;48.728;9.154;2023-07-28T13:20:07;9.07;;;8.57;;
14688;SDS011;7432;48.728;9.154;2023-07-28T13:22:34;9.13;;;8.60;;
14688;SDS011;7432;48.728;9.154;2023-07-28T13:25:00;9.35;;;8.85;;
14688;SDS011;7432;48.728;9.154;2023-07-28T13:27:27;9.43;;;8.88;;
14688;SDS011;7432;48.728;9.154;2023-07-28T13:29:54;10.10;;;9.43;;
14688;SDS011;7432;48.728;9.154;2023-07-28T13:32:23;9.38;;;8.82;;
14688;SDS011;7432;48.728;9.154;2023-07-28T13:34:52;9.02;;;8.45;;
14688;SDS011;7432;48.728;9.154;2023-07-28T13:37:18;8.68;;;8.18;;
14688;SDS011;7432;48.728;9.154;2023-07-28T13:39:45;9.05;;;8.38;;
14688;SDS011;7432;48.728;9.154;2023-07-28T13:42:12;7.90;;;7.40;;
14688;SDS011;7432;48.728;9.154;2023-07-28T13:44:40;8.30;;;7.70;;
14688;SDS011;7432;48.728;9.154;2023-07-28T13:47:07;8.15;;;7.45;;
14688;SDS011;7432;48.728;9.154;2023-07-28T13:49:33;8.45;;;7.85;;
14688;SDS011;7432;48.728;9.154;2023-07-28T13:52:03;8.05;;;7.40;;
14688;SDS011;7432;48.728;9.154;2023-07-28T13:54:30;9.32;;;7.40;;
14688;SDS011;7432;48.728;9.154;2023-07-28T13:56:56;8.13;;;7.43;;
14688;SDS011;7432;48.728;9.154;2023-07-28T13:59:22;8.48;;;7.68;;
14688;SDS011;7432;48.728;9.154;2023-07-28T14:01:49;6.97;;;6.28;;
14688;SDS011;7432;48.728;9.154;2023-07-28T14:04:16;7.03;;;6.55;;
14688;SDS011;7432;48.728;9.154;2023-07-28T14:06:42;6.75;;;6.15;;
14688;SDS011;7432;48.728;9.154;2023-07-28T14:09:10;6.55;;;6.03;;
14688;SDS011;7432;48.728;9.154;2023-07-28T14:11:36;6.22;;;5.75;;
14688;SDS011;7432;48.728;9.154;2023-07-28T14:14:02;7.53;;;6.93;;
14688;SDS011;7432;48.728;9.154;2023-07-28T14:16:29;8.02;;;7.32;;
14688;SDS011;7432;48.728;9.154;2023-07-28T14:18:55;7.90;;;7.22;;
14688;SDS011;7432;48.728;9.154;2023-07-28T14:21:22;7.10;;;6.50;;
14688;SDS011;7432;48.728;9.154;2023-07-28T14:23:48;6.80;;;6.30;;
14688;SDS011;7432;48.728;9.154;2023-07-28T14:26:16;6.85;;;6.35;;
14688;SDS011;7432;48.728;9.154;2023-07-28T14:28:42;7.20;;;6.55;;
14688;SDS011;7432;48.728;9.154;2023-07-28T14:31:09;7.22;;;6.68;;
14688;SDS011;7432;48.728;9.154;2023-07-28T14:33:35;6.03;;;5.55;;
14688;SDS011;7432;48.728;9.154;2023-07-28T14:36:01;6.05;;;5.55;;
14688;SDS011;7432;48.728;9.154;2023-07-28T14:38:28;5.45;;;5.05;;
14688;SDS011;7432;48.728;9.154;2023-07-28T14:40:54;5.20;;;4.80;;
14688;SDS011;7432;48.728;9.154;2023-07-28T14:43:22;6.03;;;5.43;;
14688;SDS011;7432;48.728;9.154;2023-07-28T14:45:50;6.03;;;5.53;;
14688;SDS011;7432;48.728;9.154;2023-07-28T14:48:16;6.10;;;5.63;;
14688;SDS011;7432;48.728;9.154;2023-07-28T14:50:43;5.60;;;5.18;;
14688;SDS011;7432;48.728;9.154;2023-07-28T14:53:28;5.88;;;5.38;;
14688;SDS011;7432;48.728;9.154;2023-07-28T14:55:55;6.07;;;5.68;;
14688;SDS011;7432;48.728;9.154;2023-07-28T14:58:23;6.32;;;5.82;;
14688;SDS011;7432;48.728;9.154;2023-07-28T15:00:50;5.93;;;5.53;;
14688;SDS011;7432;48.728;9.154;2023-07-28T15:03:16;5.90;;;5.40;;
14688;SDS011;7432;48.728;9.154;2023-07-28T15:05:43;6.38;;;5.78;;